sensor_id;sensor_type;location;lat;lon;timestamp;pressure;altitude;pressure_sealevel;temperature
67822;BMP180;54434;50.096;20.082;2023-07-20T00:01:02;98168.00;;;19.10
67822;BMP180;54434;50.096;20.082;2023-07-20T00:03:40;98167.20;;;19.00
67822;BMP180;54434;50.096;20.082;2023-07-20T00:06:16;98168.00;;;18.96
67822;BMP180;54434;50.096;20.082;2023-07-20T00:08:53;98168.00;;;18.90
67822;BMP180;54434;50.096;20.082;2023-07-20T00:11:31;98168.40;;;18.80
67822;BMP180;54434;50.096;20.082;2023-07-20T00:14:08;98163.80;;;18.70
67822;BMP180;54434;50.096;20.082;2023-07-20T00:16:44;98153.00;;;18.68
67822;BMP180;54434;50.096;20.082;2023-07-20T00:19:21;98154.20;;;18.60
67822;BMP180;54434;50.096;20.082;2023-07-20T00:21:58;98155.40;;;18.56
67822;BMP180;54434;50.096;20.082;2023-07-20T00:24:34;98155.00;;;18.50
67822;BMP180;54434;50.096;20.082;2023-07-20T00:27:11;98158.00;;;18.50
67822;BMP180;54434;50.096;20.082;2023-07-20T00:29:48;98156.20;;;18.40
67822;BMP180;54434;50.096;20.082;2023-07-20T00:32:24;98152.00;;;18.36
67822;BMP180;54434;50.096;20.082;2023-07-20T00:35:01;98150.20;;;18.30
67822;BMP180;54434;50.096;20.082;2023-07-20T00:37:38;98151.60;;;18.20
67822;BMP180;54434;50.096;20.082;2023-07-20T00:40:15;98152.60;;;18.16
67822;BMP180;54434;50.096;20.082;2023-07-20T00:42:53;98149.20;;;18.10
67822;BMP180;54434;50.096;20.082;2023-07-20T00:45:33;98151.80;;;18.00
67822;BMP180;54434;50.096;20.082;2023-07-20T00:48:11;98148.20;;;17.90
67822;BMP180;54434;50.096;20.082;2023-07-20T00:50:49;98142.00;;;17.90
67822;BMP180;54434;50.096;20.082;2023-07-20T00:53:26;98138.00;;;17.80
67822;BMP180;54434;50.096;20.082;2023-07-20T00:56:03;98145.80;;;17.72
67822;BMP180;54434;50.096;20.082;2023-07-20T00:58:40;98148.60;;;17.70
67822;BMP180;54434;50.096;20.082;2023-07-20T01:01:17;98149.00;;;17.62
67822;BMP180;54434;50.096;20.082;2023-07-20T01:03:55;98151.80;;;17.60
67822;BMP180;54434;50.096;20.082;2023-07-20T01:06:45;98153.20;;;17.60
67822;BMP180;54434;50.096;20.082;2023-07-20T01:09:34;98148.40;;;17.52
67822;BMP180;54434;50.096;20.082;2023-07-20T01:12:25;98146.80;;;17.50
67822;BMP180;54434;50.096;20.082;2023-07-20T01:15:04;98147.40;;;17.50
67822;BMP180;54434;50.096;20.082;2023-07-20T01:17:42;98148.40;;;17.50
67822;BMP180;54434;50.096;20.082;2023-07-20T01:20:23;98150.40;;;17.48
67822;BMP180;54434;50.096;20.082;2023-07-20T01:23:47;98147.40;;;17.40
67822;BMP180;54434;50.096;20.082;2023-07-20T01:27:05;98155.80;;;17.40
67822;BMP180;54434;50.096;20.082;2023-07-20T01:30:23;98160.40;;;17.40
67822;BMP180;54434;50.096;20.082;2023-07-20T01:33:03;98162.00;;;17.40
67822;BMP180;54434;50.096;20.082;2023-07-20T01:35:43;98171.40;;;17.40
67822;BMP180;54434;50.096;20.082;2023-07-20T01:38:22;98190.60;;;17.40
67822;BMP180;54434;50.096;20.082;2023-07-20T01:41:00;98190.00;;;17.40
67822;BMP180;54434;50.096;20.082;2023-07-20T01:43:38;98195.60;;;17.40
67822;BMP180;54434;50.096;20.082;2023-07-20T01:46:14;98201.00;;;17.40
67822;BMP180;54434;50.096;20.082;2023-07-20T01:48:51;98199.40;;;17.50
67822;BMP180;54434;50.096;20.082;2023-07-20T01:51:27;98202.60;;;17.50
67822;BMP180;54434;50.096;20.082;2023-07-20T01:54:04;98210.80;;;17.60
67822;BMP180;54434;50.096;20.082;2023-07-20T01:56:40;98204.40;;;17.70
67822;BMP180;54434;50.096;20.082;2023-07-20T01:59:17;98203.80;;;17.80
67822;BMP180;54434;50.096;20.082;2023-07-20T02:01:53;98196.60;;;17.80
67822;BMP180;54434;50.096;20.082;2023-07-20T02:04:30;98187.00;;;17.90
67822;BMP180;54434;50.096;20.082;2023-07-20T02:07:07;98190.80;;;18.00
67822;BMP180;54434;50.096;20.082;2023-07-20T02:09:43;98191.20;;;18.06
67822;BMP180;54434;50.096;20.082;2023-07-20T02:12:21;98189.60;;;18.10
67822;BMP180;54434;50.096;20.082;2023-07-20T02:14:57;98188.40;;;18.20
67822;BMP180;54434;50.096;20.082;2023-07-20T02:17:34;98180.40;;;18.22
67822;BMP180;54434;50.096;20.082;2023-07-20T02:20:12;98178.60;;;18.30
67822;BMP180;54434;50.096;20.082;2023-07-20T02:22:49;98180.60;;;18.30
67822;BMP180;54434;50.096;20.082;2023-07-20T02:25:25;98183.40;;;18.40
67822;BMP180;54434;50.096;20.082;2023-07-20T02:28:02;98178.80;;;18.40
67822;BMP180;54434;50.096;20.082;2023-07-20T02:30:40;98190.00;;;18.50
67822;BMP180;54434;50.096;20.082;2023-07-20T02:33:16;98189.80;;;18.50
67822;BMP180;54434;50.096;20.082;2023-07-20T02:35:53;98180.20;;;18.50
67822;BMP180;54434;50.096;20.082;2023-07-20T02:38:30;98159.80;;;18.50
67822;BMP180;54434;50.096;20.082;2023-07-20T02:41:06;98163.00;;;18.50
67822;BMP180;54434;50.096;20.082;2023-07-20T02:43:43;98173.20;;;18.50
67822;BMP180;54434;50.096;20.082;2023-07-20T02:46:19;98164.00;;;18.50
67822;BMP180;54434;50.096;20.082;2023-07-20T02:48:56;98151.20;;;18.50
67822;BMP180;54434;50.096;20.082;2023-07-20T02:51:32;98158.20;;;18.50
67822;BMP180;54434;50.096;20.082;2023-07-20T02:54:08;98167.20;;;18.50
67822;BMP180;54434;50.096;20.082;2023-07-20T02:56:45;98169.00;;;18.40
67822;BMP180;54434;50.096;20.082;2023-07-20T02:59:21;98168.20;;;18.40
67822;BMP180;54434;50.096;20.082;2023-07-20T03:01:58;98178.20;;;18.40
67822;BMP180;54434;50.096;20.082;2023-07-20T03:04:34;98187.20;;;18.32
67822;BMP180;54434;50.096;20.082;2023-07-20T03:07:12;98185.80;;;18.30
67822;BMP180;54434;50.096;20.082;2023-07-20T03:09:48;98180.80;;;18.30
67822;BMP180;54434;50.096;20.082;2023-07-20T03:12:25;98176.20;;;18.30
67822;BMP180;54434;50.096;20.082;2023-07-20T03:15:02;98187.80;;;18.30
67822;BMP180;54434;50.096;20.082;2023-07-20T03:17:39;98195.40;;;18.30
67822;BMP180;54434;50.096;20.082;2023-07-20T03:20:16;98201.80;;;18.30
67822;BMP180;54434;50.096;20.082;2023-07-20T03:22:53;98207.60;;;18.28
67822;BMP180;54434;50.096;20.082;2023-07-20T03:25:29;98213.40;;;18.20
67822;BMP180;54434;50.096;20.082;2023-07-20T03:28:06;98223.80;;;18.20
67822;BMP180;54434;50.096;20.082;2023-07-20T03:30:43;98229.00;;;18.20
67822;BMP180;54434;50.096;20.082;2023-07-20T03:33:20;98212.80;;;18.20
67822;BMP180;54434;50.096;20.082;2023-07-20T03:35:57;98221.00;;;18.20
67822;BMP180;54434;50.096;20.082;2023-07-20T03:38:34;98226.20;;;18.20
67822;BMP180;54434;50.096;20.082;2023-07-20T03:41:10;98222.80;;;18.20
67822;BMP180;54434;50.096;20.082;2023-07-20T03:43:46;98218.80;;;18.20
67822;BMP180;54434;50.096;20.082;2023-07-20T03:46:23;98219.80;;;18.20
67822;BMP180;54434;50.096;20.082;2023-07-20T03:49:00;98223.80;;;18.20
67822;BMP180;54434;50.096;20.082;2023-07-20T03:51:36;98237.80;;;18.20
67822;BMP180;54434;50.096;20.082;2023-07-20T03:54:13;98248.40;;;18.20
67822;BMP180;54434;50.096;20.082;2023-07-20T03:56:49;98245.00;;;18.20
67822;BMP180;54434;50.096;20.082;2023-07-20T03:59:26;98243.00;;;18.10
67822;BMP180;54434;50.096;20.082;2023-07-20T04:02:02;98267.60;;;18.00
67822;BMP180;54434;50.096;20.082;2023-07-20T04:04:41;98283.20;;;17.90
67822;BMP180;54434;50.096;20.082;2023-07-20T04:07:18;98303.20;;;17.80
67822;BMP180;54434;50.096;20.082;2023-07-20T04:09:54;98269.80;;;17.70
67822;BMP180;54434;50.096;20.082;2023-07-20T04:12:31;98305.00;;;17.60
67822;BMP180;54434;50.096;20.082;2023-07-20T04:15:11;98297.80;;;17.50
67822;BMP180;54434;50.096;20.082;2023-07-20T04:17:49;98322.20;;;17.44
67822;BMP180;54434;50.096;20.082;2023-07-20T04:20:25;98323.20;;;17.34
67822;BMP180;54434;50.096;20.082;2023-07-20T04:23:01;98317.80;;;17.28
67822;BMP180;54434;50.096;20.082;2023-07-20T04:25:40;98314.00;;;17.20
67822;BMP180;54434;50.096;20.082;2023-07-20T04:28:19;98312.20;;;17.10
67822;BMP180;54434;50.096;20.082;2023-07-20T04:31:08;98320.80;;;17.10
67822;BMP180;54434;50.096;20.082;2023-07-20T04:33:45;98331.60;;;17.10
67822;BMP180;54434;50.096;20.082;2023-07-20T04:36:23;98340.40;;;17.10
67822;BMP180;54434;50.096;20.082;2023-07-20T04:39:01;98345.40;;;17.20
67822;BMP180;54434;50.096;20.082;2023-07-20T04:41:44;98357.80;;;17.22
67822;BMP180;54434;50.096;20.082;2023-07-20T04:44:22;98358.80;;;17.30
67822;BMP180;54434;50.096;20.082;2023-07-20T04:46:59;98356.80;;;17.62
67822;BMP180;54434;50.096;20.082;2023-07-20T04:49:37;98359.80;;;18.24
67822;BMP180;54434;50.096;20.082;2023-07-20T04:52:14;98367.40;;;18.98
67822;BMP180;54434;50.096;20.082;2023-07-20T04:54:52;98372.20;;;19.64
67822;BMP180;54434;50.096;20.082;2023-07-20T04:57:28;98379.20;;;20.10
67822;BMP180;54434;50.096;20.082;2023-07-20T05:00:06;98379.40;;;20.62
67822;BMP180;54434;50.096;20.082;2023-07-20T05:02:45;98378.60;;;21.36
67822;BMP180;54434;50.096;20.082;2023-07-20T05:05:23;98389.40;;;21.80
67822;BMP180;54434;50.096;20.082;2023-07-20T05:07:59;98396.20;;;22.00
67822;BMP180;54434;50.096;20.082;2023-07-20T05:10:36;98395.80;;;22.20
67822;BMP180;54434;50.096;20.082;2023-07-20T05:13:12;98404.60;;;22.20
67822;BMP180;54434;50.096;20.082;2023-07-20T05:15:52;98409.80;;;21.90
67822;BMP180;54434;50.096;20.082;2023-07-20T05:18:29;98417.20;;;22.00
67822;BMP180;54434;50.096;20.082;2023-07-20T05:21:08;98420.80;;;22.28
67822;BMP180;54434;50.096;20.082;2023-07-20T05:23:44;98421.80;;;22.60
67822;BMP180;54434;50.096;20.082;2023-07-20T05:26:21;98415.60;;;22.40
67822;BMP180;54434;50.096;20.082;2023-07-20T05:28:58;98410.60;;;22.10
67822;BMP180;54434;50.096;20.082;2023-07-20T05:31:35;98413.00;;;21.90
67822;BMP180;54434;50.096;20.082;2023-07-20T05:34:11;98416.40;;;21.90
67822;BMP180;54434;50.096;20.082;2023-07-20T05:37:16;98422.20;;;21.90
67822;BMP180;54434;50.096;20.082;2023-07-20T05:39:53;98415.00;;;22.10
67822;BMP180;54434;50.096;20.082;2023-07-20T05:42:29;98408.40;;;22.30
67822;BMP180;54434;50.096;20.082;2023-07-20T05:45:07;98408.40;;;22.50
67822;BMP180;54434;50.096;20.082;2023-07-20T05:47:44;98403.40;;;22.50
67822;BMP180;54434;50.096;20.082;2023-07-20T05:50:21;98393.40;;;22.60
67822;BMP180;54434;50.096;20.082;2023-07-20T05:52:58;98383.40;;;22.70
67822;BMP180;54434;50.096;20.082;2023-07-20T05:55:34;98404.00;;;22.50
67822;BMP180;54434;50.096;20.082;2023-07-20T05:58:11;98395.20;;;22.30
67822;BMP180;54434;50.096;20.082;2023-07-20T06:00:49;98397.00;;;22.22
67822;BMP180;54434;50.096;20.082;2023-07-20T06:03:25;98400.20;;;22.68
67822;BMP180;54434;50.096;20.082;2023-07-20T06:06:04;98394.80;;;23.42
67822;BMP180;54434;50.096;20.082;2023-07-20T06:08:41;98395.80;;;24.00
67822;BMP180;54434;50.096;20.082;2023-07-20T06:11:18;98394.40;;;24.56
67822;BMP180;54434;50.096;20.082;2023-07-20T06:13:54;98394.20;;;24.94
67822;BMP180;54434;50.096;20.082;2023-07-20T06:16:30;98394.40;;;25.26
67822;BMP180;54434;50.096;20.082;2023-07-20T06:19:07;98389.20;;;25.64
67822;BMP180;54434;50.096;20.082;2023-07-20T06:21:46;98390.40;;;26.00
67822;BMP180;54434;50.096;20.082;2023-07-20T06:24:22;98394.40;;;26.00
67822;BMP180;54434;50.096;20.082;2023-07-20T06:26:59;98404.20;;;26.00
67822;BMP180;54434;50.096;20.082;2023-07-20T06:29:35;98413.00;;;25.70
67822;BMP180;54434;50.096;20.082;2023-07-20T06:32:12;98408.80;;;25.22
67822;BMP180;54434;50.096;20.082;2023-07-20T06:34:49;98405.60;;;24.66
67822;BMP180;54434;50.096;20.082;2023-07-20T06:37:25;98399.00;;;24.12
67822;BMP180;54434;50.096;20.082;2023-07-20T06:40:02;98389.60;;;23.90
67822;BMP180;54434;50.096;20.082;2023-07-20T06:42:42;98383.80;;;23.60
67822;BMP180;54434;50.096;20.082;2023-07-20T06:45:21;98382.40;;;23.34
67822;BMP180;54434;50.096;20.082;2023-07-20T06:47:58;98400.20;;;23.70
67822;BMP180;54434;50.096;20.082;2023-07-20T06:50:35;98407.20;;;23.90
67822;BMP180;54434;50.096;20.082;2023-07-20T06:53:11;98403.40;;;24.00
67822;BMP180;54434;50.096;20.082;2023-07-20T06:55:48;98406.00;;;24.34
67822;BMP180;54434;50.096;20.082;2023-07-20T06:58:25;98404.80;;;25.02
67822;BMP180;54434;50.096;20.082;2023-07-20T07:01:06;98405.00;;;25.40
67822;BMP180;54434;50.096;20.082;2023-07-20T07:03:42;98400.40;;;25.70
67822;BMP180;54434;50.096;20.082;2023-07-20T07:06:20;98401.40;;;26.24
67822;BMP180;54434;50.096;20.082;2023-07-20T07:08:58;98405.80;;;26.78
67822;BMP180;54434;50.096;20.082;2023-07-20T07:11:35;98403.80;;;27.30
67822;BMP180;54434;50.096;20.082;2023-07-20T07:14:11;98403.80;;;27.50
67822;BMP180;54434;50.096;20.082;2023-07-20T07:16:48;98406.40;;;27.90
67822;BMP180;54434;50.096;20.082;2023-07-20T07:19:26;98410.60;;;28.30
67822;BMP180;54434;50.096;20.082;2023-07-20T07:22:03;98418.00;;;28.60
67822;BMP180;54434;50.096;20.082;2023-07-20T07:24:39;98413.80;;;28.80
67822;BMP180;54434;50.096;20.082;2023-07-20T07:27:17;98417.80;;;29.10
67822;BMP180;54434;50.096;20.082;2023-07-20T07:29:53;98421.20;;;29.20
67822;BMP180;54434;50.096;20.082;2023-07-20T07:32:30;98420.00;;;29.18
67822;BMP180;54434;50.096;20.082;2023-07-20T07:35:08;98413.20;;;29.38
67822;BMP180;54434;50.096;20.082;2023-07-20T07:37:44;98418.60;;;29.70
67822;BMP180;54434;50.096;20.082;2023-07-20T07:40:40;98423.80;;;29.88
67822;BMP180;54434;50.096;20.082;2023-07-20T07:43:16;98420.00;;;30.02
67822;BMP180;54434;50.096;20.082;2023-07-20T07:45:56;98426.80;;;30.10
67822;BMP180;54434;50.096;20.082;2023-07-20T07:48:33;98425.40;;;30.10
67822;BMP180;54434;50.096;20.082;2023-07-20T07:51:09;98425.20;;;30.10
67822;BMP180;54434;50.096;20.082;2023-07-20T07:53:48;98429.60;;;30.00
67822;BMP180;54434;50.096;20.082;2023-07-20T07:56:25;98429.80;;;29.80
67822;BMP180;54434;50.096;20.082;2023-07-20T07:59:01;98426.60;;;29.40
67822;BMP180;54434;50.096;20.082;2023-07-20T08:01:38;98434.20;;;29.10
67822;BMP180;54434;50.096;20.082;2023-07-20T08:04:14;98440.20;;;28.66
67822;BMP180;54434;50.096;20.082;2023-07-20T08:06:50;98437.40;;;28.12
67822;BMP180;54434;50.096;20.082;2023-07-20T08:09:27;98439.20;;;27.80
67822;BMP180;54434;50.096;20.082;2023-07-20T08:12:05;98440.40;;;27.80
67822;BMP180;54434;50.096;20.082;2023-07-20T08:14:41;98439.00;;;27.60
67822;BMP180;54434;50.096;20.082;2023-07-20T08:17:18;98440.00;;;27.30
67822;BMP180;54434;50.096;20.082;2023-07-20T08:19:54;98443.20;;;27.12
67822;BMP180;54434;50.096;20.082;2023-07-20T08:22:31;98449.60;;;26.98
67822;BMP180;54434;50.096;20.082;2023-07-20T08:25:09;98455.40;;;26.70
67822;BMP180;54434;50.096;20.082;2023-07-20T08:27:46;98453.00;;;26.40
67822;BMP180;54434;50.096;20.082;2023-07-20T08:30:25;98448.60;;;26.10
67822;BMP180;54434;50.096;20.082;2023-07-20T08:33:01;98457.00;;;25.86
67822;BMP180;54434;50.096;20.082;2023-07-20T08:35:38;98450.20;;;25.60
67822;BMP180;54434;50.096;20.082;2023-07-20T08:38:15;98451.40;;;25.50
67822;BMP180;54434;50.096;20.082;2023-07-20T08:40:53;98454.60;;;25.40
67822;BMP180;54434;50.096;20.082;2023-07-20T08:43:34;98453.60;;;25.20
67822;BMP180;54434;50.096;20.082;2023-07-20T08:46:13;98456.20;;;25.20
67822;BMP180;54434;50.096;20.082;2023-07-20T08:48:51;98455.60;;;25.40
67822;BMP180;54434;50.096;20.082;2023-07-20T08:51:29;98456.00;;;25.60
67822;BMP180;54434;50.096;20.082;2023-07-20T08:54:07;98455.60;;;25.80
67822;BMP180;54434;50.096;20.082;2023-07-20T08:56:48;98459.80;;;26.04
67822;BMP180;54434;50.096;20.082;2023-07-20T08:59:26;98456.60;;;26.20
67822;BMP180;54434;50.096;20.082;2023-07-20T09:02:06;98461.00;;;26.10
67822;BMP180;54434;50.096;20.082;2023-07-20T09:04:45;98460.00;;;25.90
67822;BMP180;54434;50.096;20.082;2023-07-20T09:07:22;98450.60;;;26.00
67822;BMP180;54434;50.096;20.082;2023-07-20T09:10:00;98458.20;;;26.08
67822;BMP180;54434;50.096;20.082;2023-07-20T09:12:42;98461.60;;;26.00
67822;BMP180;54434;50.096;20.082;2023-07-20T09:15:21;98461.00;;;26.00
67822;BMP180;54434;50.096;20.082;2023-07-20T09:18:00;98453.00;;;26.20
67822;BMP180;54434;50.096;20.082;2023-07-20T09:20:39;98454.20;;;26.30
67822;BMP180;54434;50.096;20.082;2023-07-20T09:23:16;98453.40;;;26.30
67822;BMP180;54434;50.096;20.082;2023-07-20T09:25:53;98454.80;;;26.20
67822;BMP180;54434;50.096;20.082;2023-07-20T09:28:30;98448.80;;;26.20
67822;BMP180;54434;50.096;20.082;2023-07-20T09:31:22;98444.40;;;26.16
67822;BMP180;54434;50.096;20.082;2023-07-20T09:33:59;98446.00;;;26.10
67822;BMP180;54434;50.096;20.082;2023-07-20T09:36:38;98447.80;;;26.00
67822;BMP180;54434;50.096;20.082;2023-07-20T09:39:18;98446.60;;;26.00
67822;BMP180;54434;50.096;20.082;2023-07-20T09:42:01;98442.00;;;26.00
67822;BMP180;54434;50.096;20.082;2023-07-20T09:44:44;98439.60;;;25.90
67822;BMP180;54434;50.096;20.082;2023-07-20T09:47:28;98439.00;;;25.80
67822;BMP180;54434;50.096;20.082;2023-07-20T09:50:07;98442.40;;;26.00
67822;BMP180;54434;50.096;20.082;2023-07-20T09:52:49;98444.60;;;25.98
67822;BMP180;54434;50.096;20.082;2023-07-20T09:55:30;98443.20;;;25.90
67822;BMP180;54434;50.096;20.082;2023-07-20T09:58:09;98449.00;;;25.88
67822;BMP180;54434;50.096;20.082;2023-07-20T10:00:48;98455.60;;;25.80
67822;BMP180;54434;50.096;20.082;2023-07-20T10:03:31;98456.60;;;25.56
67822;BMP180;54434;50.096;20.082;2023-07-20T10:06:17;98454.40;;;25.30
67822;BMP180;54434;50.096;20.082;2023-07-20T10:09:02;98453.60;;;25.16
67822;BMP180;54434;50.096;20.082;2023-07-20T10:11:43;98457.20;;;25.20
67822;BMP180;54434;50.096;20.082;2023-07-20T10:14:30;98453.20;;;25.20
67822;BMP180;54434;50.096;20.082;2023-07-20T10:17:13;98450.80;;;25.30
67822;BMP180;54434;50.096;20.082;2023-07-20T10:19:56;98450.80;;;25.42
67822;BMP180;54434;50.096;20.082;2023-07-20T10:22:40;98450.40;;;25.54
67822;BMP180;54434;50.096;20.082;2023-07-20T10:25:17;98454.20;;;25.70
67822;BMP180;54434;50.096;20.082;2023-07-20T10:27:55;98448.40;;;25.70
67822;BMP180;54434;50.096;20.082;2023-07-20T10:30:34;98445.00;;;25.70
67822;BMP180;54434;50.096;20.082;2023-07-20T10:33:11;98449.00;;;25.50
67822;BMP180;54434;50.096;20.082;2023-07-20T10:36:02;98451.40;;;25.30
67822;BMP180;54434;50.096;20.082;2023-07-20T10:38:56;98457.00;;;25.10
67822;BMP180;54434;50.096;20.082;2023-07-20T10:41:39;98459.20;;;25.00
67822;BMP180;54434;50.096;20.082;2023-07-20T10:44:21;98457.20;;;25.08
67822;BMP180;54434;50.096;20.082;2023-07-20T10:47:08;98452.80;;;25.20
67822;BMP180;54434;50.096;20.082;2023-07-20T10:50:03;98449.40;;;25.30
67822;BMP180;54434;50.096;20.082;2023-07-20T10:52:49;98445.20;;;25.40
67822;BMP180;54434;50.096;20.082;2023-07-20T10:55:41;98449.20;;;25.52
67822;BMP180;54434;50.096;20.082;2023-07-20T10:58:19;98446.00;;;25.72
67822;BMP180;54434;50.096;20.082;2023-07-20T11:01:05;98444.40;;;25.70
67822;BMP180;54434;50.096;20.082;2023-07-20T11:03:43;98445.00;;;25.68
67822;BMP180;54434;50.096;20.082;2023-07-20T11:06:38;98445.00;;;25.60
67822;BMP180;54434;50.096;20.082;2023-07-20T11:09:23;98443.60;;;25.60
67822;BMP180;54434;50.096;20.082;2023-07-20T11:12:15;98444.00;;;25.64
67822;BMP180;54434;50.096;20.082;2023-07-20T11:14:58;98441.20;;;25.60
67822;BMP180;54434;50.096;20.082;2023-07-20T11:17:35;98441.40;;;25.60
67822;BMP180;54434;50.096;20.082;2023-07-20T11:20:15;98440.60;;;25.60
67822;BMP180;54434;50.096;20.082;2023-07-20T11:22:55;98438.00;;;25.68
67822;BMP180;54434;50.096;20.082;2023-07-20T11:25:42;98437.40;;;25.70
67822;BMP180;54434;50.096;20.082;2023-07-20T11:28:19;98443.00;;;25.70
67822;BMP180;54434;50.096;20.082;2023-07-20T11:30:57;98439.60;;;25.60
67822;BMP180;54434;50.096;20.082;2023-07-20T11:33:34;98434.80;;;25.70
67822;BMP180;54434;50.096;20.082;2023-07-20T11:36:12;98436.00;;;25.80
67822;BMP180;54434;50.096;20.082;2023-07-20T11:38:52;98439.40;;;25.80
67822;BMP180;54434;50.096;20.082;2023-07-20T11:41:30;98439.00;;;25.74
67822;BMP180;54434;50.096;20.082;2023-07-20T11:44:07;98440.80;;;25.60
67822;BMP180;54434;50.096;20.082;2023-07-20T11:46:46;98442.60;;;25.50
67822;BMP180;54434;50.096;20.082;2023-07-20T11:49:23;98438.60;;;25.30
67822;BMP180;54434;50.096;20.082;2023-07-20T11:51:59;98444.80;;;25.10
67822;BMP180;54434;50.096;20.082;2023-07-20T11:54:37;98440.80;;;24.90
67822;BMP180;54434;50.096;20.082;2023-07-20T11:57:22;98435.60;;;24.70
67822;BMP180;54434;50.096;20.082;2023-07-20T12:00:04;98433.20;;;24.50
67822;BMP180;54434;50.096;20.082;2023-07-20T12:02:46;98429.00;;;24.60
67822;BMP180;54434;50.096;20.082;2023-07-20T12:05:25;98427.40;;;24.60
67822;BMP180;54434;50.096;20.082;2023-07-20T12:08:02;98426.60;;;24.50
67822;BMP180;54434;50.096;20.082;2023-07-20T12:10:42;98418.80;;;24.62
67822;BMP180;54434;50.096;20.082;2023-07-20T12:13:19;98414.40;;;24.70
67822;BMP180;54434;50.096;20.082;2023-07-20T12:15:56;98410.80;;;24.80
67822;BMP180;54434;50.096;20.082;2023-07-20T12:18:43;98405.80;;;24.90
67822;BMP180;54434;50.096;20.082;2023-07-20T12:21:22;98407.20;;;25.00
67822;BMP180;54434;50.096;20.082;2023-07-20T12:24:01;98407.40;;;25.00
67822;BMP180;54434;50.096;20.082;2023-07-20T12:26:38;98405.00;;;25.08
67822;BMP180;54434;50.096;20.082;2023-07-20T12:29:15;98399.20;;;25.10
67822;BMP180;54434;50.096;20.082;2023-07-20T12:31:51;98400.60;;;25.10
67822;BMP180;54434;50.096;20.082;2023-07-20T12:34:28;98393.80;;;25.20
67822;BMP180;54434;50.096;20.082;2023-07-20T12:37:07;98391.80;;;25.30
67822;BMP180;54434;50.096;20.082;2023-07-20T12:39:47;98390.20;;;25.30
67822;BMP180;54434;50.096;20.082;2023-07-20T12:42:23;98388.40;;;25.30
67822;BMP180;54434;50.096;20.082;2023-07-20T12:44:59;98384.80;;;25.40
67822;BMP180;54434;50.096;20.082;2023-07-20T12:47:37;98388.60;;;25.50
67822;BMP180;54434;50.096;20.082;2023-07-20T12:50:14;98389.80;;;25.60
67822;BMP180;54434;50.096;20.082;2023-07-20T12:52:53;98390.40;;;25.60
67822;BMP180;54434;50.096;20.082;2023-07-20T12:55:29;98382.80;;;25.64
67822;BMP180;54434;50.096;20.082;2023-07-20T12:58:06;98386.40;;;25.70
67822;BMP180;54434;50.096;20.082;2023-07-20T13:00:42;98383.40;;;25.70
67822;BMP180;54434;50.096;20.082;2023-07-20T13:03:19;98384.60;;;25.80
67822;BMP180;54434;50.096;20.082;2023-07-20T13:05:59;98387.60;;;25.82
67822;BMP180;54434;50.096;20.082;2023-07-20T13:08:38;98387.40;;;25.80
67822;BMP180;54434;50.096;20.082;2023-07-20T13:11:15;98381.80;;;25.80
67822;BMP180;54434;50.096;20.082;2023-07-20T13:13:51;98377.60;;;25.90
67822;BMP180;54434;50.096;20.082;2023-07-20T13:16:27;98372.80;;;25.90
67822;BMP180;54434;50.096;20.082;2023-07-20T13:19:04;98373.00;;;26.00
67822;BMP180;54434;50.096;20.082;2023-07-20T13:21:41;98368.20;;;25.90
67822;BMP180;54434;50.096;20.082;2023-07-20T13:24:17;98363.00;;;25.90
67822;BMP180;54434;50.096;20.082;2023-07-20T13:26:53;98363.20;;;25.70
67822;BMP180;54434;50.096;20.082;2023-07-20T13:29:30;98371.60;;;25.60
67822;BMP180;54434;50.096;20.082;2023-07-20T13:32:09;98369.40;;;25.60
67822;BMP180;54434;50.096;20.082;2023-07-20T13:34:46;98372.80;;;25.50
67822;BMP180;54434;50.096;20.082;2023-07-20T13:37:24;98366.20;;;25.50
67822;BMP180;54434;50.096;20.082;2023-07-20T13:40:00;98366.80;;;25.50
67822;BMP180;54434;50.096;20.082;2023-07-20T13:42:39;98375.20;;;25.60
67822;BMP180;54434;50.096;20.082;2023-07-20T13:45:16;98369.00;;;25.60
67822;BMP180;54434;50.096;20.082;2023-07-20T13:47:53;98365.00;;;25.70
67822;BMP180;54434;50.096;20.082;2023-07-20T13:50:30;98372.00;;;25.70
67822;BMP180;54434;50.096;20.082;2023-07-20T13:53:16;98366.60;;;25.70
67822;BMP180;54434;50.096;20.082;2023-07-20T13:55:56;98367.80;;;25.60
67822;BMP180;54434;50.096;20.082;2023-07-20T13:58:36;98375.40;;;25.58
67822;BMP180;54434;50.096;20.082;2023-07-20T14:01:15;98377.80;;;25.50
67822;BMP180;54434;50.096;20.082;2023-07-20T14:04:04;98381.40;;;25.50
67822;BMP180;54434;50.096;20.082;2023-07-20T14:06:41;98382.00;;;25.62
67822;BMP180;54434;50.096;20.082;2023-07-20T14:09:17;98382.20;;;25.70
67822;BMP180;54434;50.096;20.082;2023-07-20T14:11:54;98384.60;;;25.80
67822;BMP180;54434;50.096;20.082;2023-07-20T14:14:33;98385.40;;;25.80
67822;BMP180;54434;50.096;20.082;2023-07-20T14:17:10;98390.00;;;25.80
67822;BMP180;54434;50.096;20.082;2023-07-20T14:19:47;98395.00;;;25.70
67822;BMP180;54434;50.096;20.082;2023-07-20T14:22:24;98402.60;;;25.78
67822;BMP180;54434;50.096;20.082;2023-07-20T14:25:01;98405.80;;;25.70
67822;BMP180;54434;50.096;20.082;2023-07-20T14:27:38;98406.80;;;25.60
67822;BMP180;54434;50.096;20.082;2023-07-20T14:30:16;98413.00;;;25.48
67822;BMP180;54434;50.096;20.082;2023-07-20T14:32:54;98413.40;;;25.10
67822;BMP180;54434;50.096;20.082;2023-07-20T14:35:31;98408.80;;;24.70
67822;BMP180;54434;50.096;20.082;2023-07-20T14:38:08;98399.60;;;24.44
67822;BMP180;54434;50.096;20.082;2023-07-20T14:40:45;98404.60;;;24.20
67822;BMP180;54434;50.096;20.082;2023-07-20T14:43:24;98398.80;;;24.10
67822;BMP180;54434;50.096;20.082;2023-07-20T14:46:01;98390.80;;;24.00
67822;BMP180;54434;50.096;20.082;2023-07-20T14:48:39;98395.80;;;23.90
67822;BMP180;54434;50.096;20.082;2023-07-20T14:51:15;98394.60;;;23.78
67822;BMP180;54434;50.096;20.082;2023-07-20T14:53:52;98399.00;;;23.70
67822;BMP180;54434;50.096;20.082;2023-07-20T14:56:29;98401.40;;;23.60
67822;BMP180;54434;50.096;20.082;2023-07-20T14:59:05;98407.60;;;23.50
67822;BMP180;54434;50.096;20.082;2023-07-20T15:01:42;98405.00;;;23.40